GBYDGUCY

Guest
Details From GBYD - Banjul Intl
To GUCY - CONAKRY
Flight Number -
Tags generated
Created
Modified
Stats Distance 288 nm / 534 km
Max Altitude 25,100 ft / 7,650 m
Waypoints 6
Social Downloads 4
Likes 0
Share VATSIM

Download

Looking for another format? Having issues loading an existing format? Contact us
Advertisement - Login to hide

Notes

Basic altitude profile: - Ascent Rate: 2500ft/min - Ascent Speed: 250kts - Cruise Altitude: 35000ft - Cruise Speed: 420kts - Descent Rate: 1500ft/min - Descent Speed: 250kts Options: - Use NATs: yes - Use PACOTS: yes - Use low airways: yes - Use high airways: yes

Route

GBYD KOMOR UB600 KIRTI B600 AXIRO GUCY

ID Type Via Altitude Latitude Longitude Leg Dist Tot Dist Heading (true) Name
O GBYD APT - 0 ft / 0 m 13.33796˚ -16.65221˚ - 0 nm - Banjul Intl
KOMOR FIX - 23,700 ft / 7,224 m 12.43333˚ -15.91500˚ 69 nm 69 nm 141° / 142° -
SESEL FIX UB600 (AWY-HI) 25,100 ft / 7,650 m 11.16667˚ -14.89333˚ 96 nm 166 nm 142° / 142° -
KIRTI FIX UB600 (AWY-HI) 25,000 ft / 7,620 m 10.69979˚ -14.53319˚ 35 nm 201 nm 143° / 143° -
AXIRO FIX B600 (AWY-LO) 8,500 ft / 2,591 m 10.09985˚ -14.03318˚ 46 nm 248 nm 141° / 141° -
O GUCY APT - 0 ft / 0 m 9.57690˚ -13.61188˚ 40 nm 288 nm 142° / 142° CONAKRY

Altitude Profile

Advertisement - Login to hide

Weather


0- 5 10 15 20 25 30 35+ Temperature / ° C

Clouds and Precipitation
Forecast for 2017-12-13 06:00 UTC. Updated 8 minutes ago

Ground ~20,000 ft ~40,000 ft Winds

GBYD

Details ICAO GBYD (BJL)
Name Banjul Intl
Region The Gambia
Timezone Africa/Banjul (UTC+0.0)
Stats Elevation 95 ft / 29 m (AMSL)
Location 13.337960° -16.652206°
Runways 1
Magnetic Variation 7.312° W

METAR

GBYD 130500Z 32008KT 9000 SKC 17/10 Q1012

Decode

TAF

TAF GBYD 122330Z 1300/1406 01008KT 8000 NSC= TAF LFPB 122300Z 1300/1324 20012KT CAVOK BECMG 1303/1305 20015G25KT BKN010 TEMPO 1305/1309 20015G30KT 4000 RA BKN008 TEMPO 1315/1320 20015G30KT 3000 RA BKN008 BECMG 1320/1322 25015G25KT SCT020 TEMPO 1322/1324 25015G30KT 4000 -SHRA BKN020TCU PROB40 TEMPO 1322/1324 25020G35KT

Decode

Departure Runways

ID Width Length Bearing (true) Bearing (mag) Surface Threshold Offset Overrun Length
14 148 ft / 45 m 11,825 ft / 3,604 m 130.82° 138.13° Asphalt 500 ft / 152 m 197 ft / 60 m
32 148 ft / 45 m 11,825 ft / 3,604 m 310.83° 318.14° Asphalt 500 ft / 152 m 393 ft / 120 m

GUCY

Details ICAO GUCY (CKY)
Name CONAKRY
Region Guinea
Timezone Africa/Conakry (UTC+0.0)
Stats Elevation 72 ft / 22 m (AMSL)
Location 9.576897° -13.611879°
Runways 1
Magnetic Variation 7.006° W

METAR

Not found

TAF

TAF GUCY 121700Z 1218/1324 26006KT 5000 HZ NSC BECMG 1303/1308 VRB02KT 3000 BR NSC

Decode

Destination Runways

ID Width Length Bearing (true) Bearing (mag) Surface Threshold Offset Overrun Length
06 148 ft / 45 m 10,836 ft / 3,303 m 49.26° 56.27° Asphalt 0 ft / 0 m 197 ft / 60 m
24 148 ft / 45 m 10,836 ft / 3,303 m 229.27° 236.28° Asphalt 0 ft / 0 m 197 ft / 60 m

Popular Alternatives